createdAt,value
2019-04-28T00:01:16.478Z,32.67
2019-04-28T00:03:45.327Z,32.83
2019-04-28T00:06:14.189Z,32.23
2019-04-28T00:08:43.117Z,34.07
2019-04-28T00:11:11.987Z,33.07
2019-04-28T00:13:41.805Z,31.03
2019-04-28T00:16:11.585Z,31.90
2019-04-28T00:18:41.568Z,31.53
2019-04-28T00:21:28.369Z,25.57
2019-04-28T00:24:11.435Z,24.93
2019-04-28T00:26:44.787Z,23.63
2019-04-28T00:29:13.644Z,24.53
2019-04-28T00:31:42.501Z,23.27
2019-04-28T00:34:11.628Z,21.40
2019-04-28T00:36:43.062Z,21.30
2019-04-28T00:39:12.163Z,21.13
2019-04-28T00:41:42.100Z,22.23
2019-04-28T00:44:11.964Z,27.63
2019-04-28T00:46:42.502Z,25.77
2019-04-28T00:49:11.973Z,24.63
2019-04-28T00:51:41.438Z,25.60
2019-04-28T00:54:12.036Z,25.10
2019-04-28T00:56:41.769Z,27.20
2019-04-28T00:59:11.950Z,25.10
2019-04-28T01:01:42.645Z,24.47
2019-04-28T01:04:11.890Z,23.80
2019-04-28T01:06:42.882Z,23.63
2019-04-28T01:09:12.028Z,23.47
2019-04-28T01:11:41.501Z,22.87
2019-04-28T01:14:11.447Z,22.10
2019-04-28T01:16:42.116Z,22.63
2019-04-28T01:19:12.617Z,23.87
2019-04-28T01:22:00.357Z,24.10
2019-04-28T01:24:29.770Z,22.57
2019-04-28T01:27:00.394Z,21.73
2019-04-28T01:29:29.565Z,21.83
2019-04-28T01:32:00.419Z,22.03
2019-04-28T01:34:30.069Z,23.10
2019-04-28T01:36:59.808Z,22.87
2019-04-28T01:39:29.734Z,23.53
2019-04-28T01:41:59.519Z,20.63
2019-04-28T01:44:29.642Z,21.67
2019-04-28T01:46:59.640Z,21.10
2019-04-28T01:49:29.536Z,17.23
2019-04-28T01:52:00.840Z,18.77
2019-04-28T01:54:30.491Z,19.53
2019-04-28T01:57:01.412Z,20.27
2019-04-28T01:59:30.370Z,19.17
2019-04-28T02:02:00.079Z,20.67
2019-04-28T02:04:32.153Z,19.67
2019-04-28T02:06:59.991Z,18.33
2019-04-28T02:09:30.085Z,19.37
2019-04-28T02:12:00.807Z,18.97
2019-04-28T02:14:30.833Z,16.77
2019-04-28T02:17:00.509Z,16.93
2019-04-28T02:19:32.710Z,17.67
2019-04-28T02:22:10.627Z,18.40
2019-04-28T02:24:40.480Z,15.97
2019-04-28T02:27:10.575Z,16.43
2019-04-28T02:29:41.662Z,17.87
2019-04-28T02:32:11.960Z,16.70
2019-04-28T02:34:41.370Z,15.90
2019-04-28T02:37:11.295Z,17.33
2019-04-28T02:39:41.247Z,15.57
2019-04-28T02:42:11.067Z,17.40
2019-04-28T02:44:40.634Z,16.27
2019-04-28T02:47:10.857Z,17.63
2019-04-28T02:49:50.134Z,17.70
2019-04-28T02:52:31.040Z,19.77
2019-04-28T02:55:03.249Z,18.83
2019-04-28T02:57:31.285Z,19.47
2019-04-28T03:00:00.459Z,21.10
2019-04-28T03:02:31.984Z,19.23
2019-04-28T03:05:00.434Z,20.43
2019-04-28T03:07:31.180Z,21.23
2019-04-28T03:10:01.143Z,22.87
2019-04-28T03:12:31.615Z,22.87
2019-04-28T03:15:00.931Z,20.50
2019-04-28T03:17:30.921Z,22.00
2019-04-28T03:20:01.125Z,24.73
2019-04-28T03:22:32.988Z,23.63
2019-04-28T03:25:02.438Z,20.73
2019-04-28T03:27:32.874Z,19.63
2019-04-28T03:30:13.460Z,23.30
2019-04-28T03:32:53.570Z,25.30
2019-04-28T03:35:22.378Z,28.97
2019-04-28T03:37:48.046Z,29.07
2019-04-28T03:40:16.908Z,33.13
2019-04-28T03:42:45.830Z,31.23
2019-04-28T03:45:16.274Z,29.80
2019-04-28T03:47:45.137Z,34.97
2019-04-28T03:50:14.046Z,28.90
2019-04-28T03:52:42.876Z,25.20
2019-04-28T03:55:11.922Z,21.40
2019-04-28T03:57:41.367Z,22.87
2019-04-28T04:00:11.092Z,20.83
2019-04-28T04:02:41.200Z,18.80
2019-04-28T04:05:11.270Z,17.00
2019-04-28T04:07:42.860Z,21.00
2019-04-28T04:10:21.363Z,19.17
2019-04-28T04:12:51.757Z,18.93
2019-04-28T04:15:42.131Z,19.90
2019-04-28T04:18:12.557Z,21.50
2019-04-28T04:20:41.407Z,20.07
2019-04-28T04:23:11.235Z,19.00
2019-04-28T04:25:41.733Z,21.10
2019-04-28T04:28:10.901Z,20.50
2019-04-28T04:30:40.917Z,19.90
2019-04-28T04:33:11.068Z,20.00
2019-04-28T04:35:41.181Z,19.90
2019-04-28T04:38:10.889Z,18.97
2019-04-28T04:40:41.220Z,16.57
2019-04-28T04:43:11.251Z,18.73
2019-04-28T04:45:40.674Z,18.53
2019-04-28T04:48:11.618Z,17.20
2019-04-28T04:50:41.121Z,20.93
2019-04-28T04:53:11.181Z,21.83
2019-04-28T04:55:40.762Z,18.87
2019-04-28T04:58:10.735Z,15.30
2019-04-28T05:00:43.373Z,16.97
2019-04-28T05:03:13.571Z,19.03
2019-04-28T05:05:43.642Z,18.73
2019-04-28T05:08:15.532Z,22.97
2019-04-28T05:10:43.061Z,20.73
2019-04-28T05:13:11.913Z,21.17
2019-04-28T05:15:40.849Z,20.80
2019-04-28T05:18:10.153Z,22.27
2019-04-28T05:20:40.389Z,21.00
2019-04-28T05:23:14.154Z,20.47
2019-04-28T05:25:44.218Z,18.97
2019-04-28T05:28:13.065Z,18.97
2019-04-28T05:30:42.960Z,18.73
2019-04-28T05:33:13.713Z,19.73
2019-04-28T05:35:42.578Z,17.50
2019-04-28T05:38:11.468Z,17.07
2019-04-28T05:40:40.316Z,17.93
2019-04-28T05:43:10.661Z,19.13
2019-04-28T05:45:39.858Z,19.67
2019-04-28T05:48:11.231Z,18.83
2019-04-28T05:50:43.753Z,18.10
2019-04-28T05:53:17.179Z,19.13
2019-04-28T05:55:47.661Z,17.93
2019-04-28T05:58:24.270Z,18.60
2019-04-28T06:01:00.997Z,16.30
2019-04-28T06:03:31.444Z,15.43
2019-04-28T06:06:00.286Z,15.30
2019-04-28T06:08:34.679Z,15.33
2019-04-28T06:11:05.107Z,15.67
2019-04-28T06:13:34.001Z,16.67
2019-04-28T06:16:05.843Z,16.50
2019-04-28T06:18:34.673Z,21.63
2019-04-28T06:21:03.544Z,20.70
2019-04-28T06:23:32.444Z,22.60
2019-04-28T06:26:01.285Z,20.80
2019-04-28T06:28:30.591Z,22.47
2019-04-28T06:30:59.539Z,18.00
2019-04-28T06:33:28.395Z,18.57
2019-04-28T06:35:57.272Z,19.30
2019-04-28T06:38:26.247Z,19.13
2019-04-28T06:40:55.194Z,18.00
2019-04-28T06:43:24.047Z,18.27
2019-04-28T06:45:53.010Z,17.10
2019-04-28T06:48:21.881Z,18.23
2019-04-28T06:50:50.775Z,18.77
2019-04-28T06:53:19.719Z,19.97
2019-04-28T06:55:48.588Z,18.37
2019-04-28T06:58:17.415Z,14.30
2019-04-28T07:00:46.460Z,15.43
2019-04-28T07:03:22.943Z,15.47
2019-04-28T07:05:45.949Z,13.70
2019-04-28T07:08:14.868Z,13.00
2019-04-28T07:10:43.774Z,11.93
2019-04-28T07:13:14.208Z,12.23
2019-04-28T07:15:43.119Z,13.97
2019-04-28T07:18:11.993Z,11.60
2019-04-28T07:20:54.520Z,11.53
2019-04-28T07:23:23.488Z,12.57
2019-04-28T07:25:52.408Z,13.27
2019-04-28T07:28:21.334Z,13.07
2019-04-28T07:30:50.918Z,13.73
2019-04-28T07:33:19.759Z,14.67
2019-04-28T07:35:48.697Z,14.43
2019-04-28T07:38:17.530Z,14.93
2019-04-28T07:40:46.436Z,14.07
2019-04-28T07:43:15.489Z,14.20
2019-04-28T07:45:44.377Z,14.50
2019-04-28T07:48:13.823Z,14.23
2019-04-28T07:50:42.680Z,14.37
2019-04-28T07:53:19.745Z,14.77
2019-04-28T07:55:48.664Z,14.07
2019-04-28T07:58:20.716Z,12.97
2019-04-28T08:00:49.540Z,12.47
2019-04-28T08:03:18.453Z,12.27
2019-04-28T08:05:47.350Z,9.03
2019-04-28T08:08:16.212Z,7.90
2019-04-28T08:10:45.131Z,6.83
2019-04-28T08:13:14.003Z,5.30
2019-04-28T08:15:42.896Z,5.53
2019-04-28T08:18:11.911Z,7.92
2019-04-28T08:20:40.805Z,7.83
2019-04-28T08:23:09.652Z,7.40
2019-04-28T08:25:38.581Z,7.73
2019-04-28T08:28:07.457Z,7.67
2019-04-28T08:30:36.443Z,7.83
2019-04-28T08:33:08.820Z,7.97
2019-04-28T08:35:49.392Z,8.53
2019-04-28T08:38:18.312Z,7.80
2019-04-28T08:40:47.162Z,7.40
2019-04-28T08:43:16.049Z,6.77
2019-04-28T08:45:45.117Z,7.83
2019-04-28T08:48:14.109Z,8.27
2019-04-28T08:50:43.032Z,7.43
2019-04-28T08:53:14.013Z,7.57
2019-04-28T08:55:42.455Z,8.27
2019-04-28T08:58:11.324Z,8.80
2019-04-28T09:00:40.243Z,7.70
2019-04-28T09:03:09.165Z,7.47
2019-04-28T09:05:38.128Z,8.60
2019-04-28T09:08:07.113Z,8.10
2019-04-28T09:10:35.992Z,8.18
2019-04-28T09:13:04.874Z,7.67
2019-04-28T09:15:33.759Z,7.10
2019-04-28T09:18:02.698Z,6.40
2019-04-28T09:20:31.529Z,6.35
2019-04-28T09:23:00.598Z,7.53
2019-04-28T09:25:29.472Z,5.92
2019-04-28T09:27:58.362Z,5.37
2019-04-28T09:30:27.293Z,6.80
2019-04-28T09:32:56.164Z,5.58
2019-04-28T09:35:25.137Z,5.45
2019-04-28T09:37:54.039Z,4.65
2019-04-28T09:40:22.882Z,4.58
2019-04-28T09:43:05.472Z,4.67
2019-04-28T09:45:35.921Z,2.75
2019-04-28T09:48:04.790Z,6.03
2019-04-28T09:50:33.761Z,2.80
2019-04-28T09:53:02.604Z,2.92
2019-04-28T09:55:31.444Z,3.08
2019-04-28T09:58:00.343Z,3.00
2019-04-28T10:00:29.204Z,2.62
2019-04-28T10:02:58.142Z,2.20
2019-04-28T10:05:27.056Z,1.92
2019-04-28T10:07:56.008Z,2.83
2019-04-28T10:10:25.000Z,2.42
2019-04-28T10:12:53.950Z,2.25
2019-04-28T10:15:22.769Z,2.30
2019-04-28T10:17:51.649Z,3.47
2019-04-28T10:20:21.406Z,3.50
2019-04-28T10:22:50.277Z,2.40
2019-04-28T10:25:21.161Z,2.10
2019-04-28T10:27:49.695Z,2.50
2019-04-28T10:30:19.832Z,2.33
2019-04-28T10:32:48.664Z,2.77
2019-04-28T10:35:17.719Z,2.37
2019-04-28T10:37:46.572Z,2.30
2019-04-28T10:40:22.456Z,3.10
2019-04-28T10:42:51.338Z,2.53
2019-04-28T10:45:21.772Z,2.70
2019-04-28T10:47:50.685Z,3.33
2019-04-28T10:50:19.710Z,6.70
2019-04-28T10:52:48.610Z,3.67
2019-04-28T10:55:17.558Z,2.70
2019-04-28T10:57:46.416Z,2.30
2019-04-28T11:00:16.819Z,2.23
2019-04-28T11:02:45.721Z,2.50
2019-04-28T11:05:16.299Z,2.67
2019-04-28T11:07:45.179Z,2.43
2019-04-28T11:10:15.723Z,3.20
2019-04-28T11:12:44.632Z,3.40
2019-04-28T11:15:15.616Z,2.80
2019-04-28T11:17:44.557Z,2.30
2019-04-28T11:20:13.514Z,2.70
2019-04-28T11:22:42.474Z,2.33
2019-04-28T11:25:11.574Z,2.63
2019-04-28T11:27:40.427Z,3.10
2019-04-28T11:30:10.000Z,2.43
2019-04-28T11:32:40.527Z,2.80
2019-04-28T11:35:21.859Z,2.37
2019-04-28T11:37:47.499Z,2.03
2019-04-28T11:40:16.343Z,2.27
2019-04-28T11:42:45.222Z,2.23
2019-04-28T11:45:14.529Z,2.40
2019-04-28T11:47:43.480Z,3.00
2019-04-28T11:50:12.560Z,2.93
2019-04-28T11:52:41.470Z,4.03
2019-04-28T11:55:10.324Z,3.30
2019-04-28T11:57:39.168Z,3.70
2019-04-28T12:00:10.268Z,3.40
2019-04-28T12:02:39.126Z,3.03
2019-04-28T12:05:08.184Z,2.80
2019-04-28T12:07:37.121Z,2.80
2019-04-28T12:10:20.287Z,2.73
2019-04-28T12:12:54.274Z,3.10
2019-04-28T12:15:36.517Z,3.50
2019-04-28T12:18:24.227Z,3.93
2019-04-28T12:20:53.099Z,2.73
2019-04-28T12:23:21.933Z,2.93
2019-04-28T12:25:50.816Z,2.97
2019-04-28T12:28:19.702Z,2.43
2019-04-28T12:30:48.568Z,3.23
2019-04-28T12:33:17.484Z,3.27
2019-04-28T12:35:48.061Z,2.90
2019-04-28T12:38:16.951Z,3.10
2019-04-28T12:40:45.953Z,2.97
2019-04-28T12:43:14.824Z,2.50
2019-04-28T12:45:43.671Z,2.40
2019-04-28T12:48:12.564Z,2.30
2019-04-28T12:50:42.956Z,2.17
2019-04-28T12:53:11.859Z,2.80
2019-04-28T12:55:40.772Z,2.77
2019-04-28T12:58:09.667Z,3.00
2019-04-28T13:00:40.069Z,2.97
2019-04-28T13:03:14.412Z,2.50
2019-04-28T13:05:44.839Z,2.90
2019-04-28T13:08:13.714Z,3.53
2019-04-28T13:10:42.616Z,3.23
2019-04-28T13:13:11.561Z,3.50
2019-04-28T13:15:40.723Z,3.30
2019-04-28T13:18:09.688Z,4.00
2019-04-28T13:20:38.533Z,2.10
2019-04-28T13:23:07.508Z,2.50
2019-04-28T13:25:36.548Z,2.37
2019-04-28T13:28:05.412Z,2.70
2019-04-28T13:30:34.254Z,2.00
2019-04-28T13:33:03.197Z,2.80
2019-04-28T13:35:32.327Z,2.47
2019-04-28T13:38:01.193Z,2.70
2019-04-28T13:40:31.672Z,2.37
2019-04-28T13:43:00.556Z,2.47
2019-04-28T13:45:30.314Z,2.73
2019-04-28T13:47:59.252Z,2.37
2019-04-28T13:50:32.941Z,2.30
2019-04-28T13:53:01.871Z,2.20
2019-04-28T13:55:47.678Z,3.63
2019-04-28T13:58:18.377Z,2.10
2019-04-28T14:00:57.613Z,1.90
2019-04-28T14:03:30.903Z,2.97
2019-04-28T14:06:01.415Z,2.27
2019-04-28T14:08:30.341Z,2.57
2019-04-28T14:10:59.239Z,5.13
2019-04-28T14:13:28.035Z,2.90
2019-04-28T14:15:57.042Z,2.30
2019-04-28T14:18:25.914Z,2.23
2019-04-28T14:20:54.756Z,2.00
2019-04-28T14:23:23.697Z,2.50
2019-04-28T14:25:52.609Z,3.13
2019-04-28T14:28:21.453Z,1.90
2019-04-28T14:30:50.364Z,2.30
2019-04-28T14:33:19.210Z,1.90
2019-04-28T14:35:48.069Z,2.03
2019-04-28T14:38:16.962Z,2.60
2019-04-28T14:40:45.832Z,3.17
2019-04-28T14:43:14.685Z,2.40
2019-04-28T14:45:43.575Z,2.90
2019-04-28T14:48:12.436Z,2.00
2019-04-28T14:50:41.337Z,1.77
2019-04-28T14:53:10.208Z,2.83
2019-04-28T14:55:39.096Z,1.70
2019-04-28T14:58:07.958Z,1.73
2019-04-28T15:00:38.430Z,2.10
2019-04-28T15:03:08.862Z,2.50
2019-04-28T15:05:41.797Z,2.50
2019-04-28T15:08:27.354Z,2.13
2019-04-28T15:11:06.380Z,1.80
2019-04-28T15:13:35.289Z,1.97
2019-04-28T15:16:04.141Z,1.30
2019-04-28T15:18:32.997Z,2.00
2019-04-28T15:21:02.056Z,1.73
2019-04-28T15:23:30.925Z,1.60
2019-04-28T15:25:59.836Z,1.50
2019-04-28T15:28:28.805Z,1.80
2019-04-28T15:30:57.743Z,2.13
2019-04-28T15:33:26.624Z,1.50
2019-04-28T15:35:55.579Z,2.13
2019-04-28T15:38:24.482Z,1.67
2019-04-28T15:40:53.317Z,1.40
2019-04-28T15:43:22.219Z,1.23
2019-04-28T15:45:51.062Z,1.40
2019-04-28T15:48:19.903Z,1.20
2019-04-28T15:50:49.765Z,3.03
2019-04-28T15:53:18.609Z,1.40
2019-04-28T15:55:49.083Z,2.00
2019-04-28T15:58:34.736Z,1.37
2019-04-28T16:01:03.753Z,2.30
2019-04-28T16:03:32.589Z,1.57
2019-04-28T16:06:01.579Z,1.90
2019-04-28T16:08:30.512Z,2.07
2019-04-28T16:10:59.370Z,1.47
2019-04-28T16:13:28.225Z,1.43
2019-04-28T16:15:57.095Z,2.80
2019-04-28T16:18:25.950Z,1.40
2019-04-28T16:20:54.974Z,1.77
2019-04-28T16:23:23.822Z,3.00
2019-04-28T16:25:52.687Z,2.00
2019-04-28T16:28:21.639Z,1.93
2019-04-28T16:30:50.483Z,1.90
2019-04-28T16:33:19.327Z,2.17
2019-04-28T16:35:48.223Z,2.23
2019-04-28T16:38:17.031Z,2.60
2019-04-28T16:40:46.582Z,2.70
2019-04-28T16:43:15.962Z,2.20
2019-04-28T16:45:44.802Z,2.17
2019-04-28T16:48:13.677Z,2.00
2019-04-28T16:50:42.779Z,1.57
2019-04-28T16:53:11.630Z,1.57
2019-04-28T16:55:47.854Z,1.97
2019-04-28T16:58:20.750Z,2.47
2019-04-28T17:00:54.007Z,2.00
2019-04-28T17:03:22.848Z,1.80
2019-04-28T17:05:51.691Z,2.63
2019-04-28T17:08:20.684Z,3.07
2019-04-28T17:10:49.727Z,2.40
2019-04-28T17:13:18.638Z,2.20
2019-04-28T17:15:47.517Z,2.50
2019-04-28T17:18:16.357Z,2.80
2019-04-28T17:20:45.177Z,2.30
2019-04-28T17:23:14.077Z,2.47
2019-04-28T17:25:42.933Z,2.73
2019-04-28T17:28:11.786Z,2.90
2019-04-28T17:30:40.791Z,2.40
2019-04-28T17:33:09.639Z,2.63
2019-04-28T17:35:38.538Z,3.27
2019-04-28T17:38:07.540Z,1.90
2019-04-28T17:40:36.887Z,2.23
2019-04-28T17:43:06.641Z,3.07
2019-04-28T17:45:35.537Z,4.20
2019-04-28T17:48:22.136Z,3.40
2019-04-28T17:50:52.258Z,3.80
2019-04-28T17:53:21.083Z,6.67
2019-04-28T17:55:49.905Z,5.27
2019-04-28T17:58:18.800Z,4.10
2019-04-28T18:00:54.717Z,5.30
2019-04-28T18:03:25.187Z,5.50
2019-04-28T18:05:58.376Z,5.83
2019-04-28T18:08:28.224Z,3.80
2019-04-28T18:10:57.306Z,3.37
2019-04-28T18:13:26.143Z,4.60
2019-04-28T18:15:56.564Z,3.83
2019-04-28T18:18:35.922Z,3.80
2019-04-28T18:21:04.858Z,4.90
2019-04-28T18:23:33.710Z,5.40
2019-04-28T18:26:02.663Z,3.93
2019-04-28T18:28:31.497Z,4.27
2019-04-28T18:31:01.910Z,4.27
2019-04-28T18:33:38.307Z,5.47
2019-04-28T18:36:26.973Z,6.50
2019-04-28T18:38:57.783Z,5.73
2019-04-28T18:41:45.625Z,5.57
2019-04-28T18:44:18.937Z,5.93
2019-04-28T18:46:47.788Z,5.70
2019-04-28T18:49:16.646Z,6.10
2019-04-28T18:51:45.537Z,5.90
2019-04-28T18:54:14.681Z,5.77
2019-04-28T18:56:43.469Z,4.97
2019-04-28T18:59:12.351Z,7.53
2019-04-28T19:01:54.622Z,7.00
2019-04-28T19:04:23.966Z,6.73
2019-04-28T19:07:04.412Z,6.73
2019-04-28T19:09:36.639Z,5.70
2019-04-28T19:12:12.781Z,6.07
2019-04-28T19:14:46.252Z,6.50
2019-04-28T19:17:32.809Z,6.33
2019-04-28T19:20:01.730Z,6.17
2019-04-28T19:22:33.776Z,6.70
2019-04-28T19:25:02.626Z,7.00
2019-04-28T19:27:31.523Z,11.90
2019-04-28T19:30:00.402Z,16.93
2019-04-28T19:32:29.256Z,15.93
2019-04-28T19:35:03.945Z,13.43
2019-04-28T19:37:34.964Z,10.20
2019-04-28T19:40:08.113Z,9.93
2019-04-28T19:42:45.923Z,11.00
2019-04-28T19:45:18.268Z,21.17
2019-04-28T19:47:47.571Z,22.20
2019-04-28T19:50:19.943Z,28.77
2019-04-28T19:52:56.555Z,33.57
2019-04-28T19:55:24.485Z,37.50
2019-04-28T19:58:00.798Z,36.50
2019-04-28T20:00:31.239Z,10.93
2019-04-28T20:03:09.440Z,11.67
2019-04-28T20:05:40.258Z,13.00
2019-04-28T20:08:16.642Z,13.13
2019-04-28T20:10:57.808Z,12.73
2019-04-28T20:13:35.917Z,11.90
2019-04-28T20:16:04.773Z,11.50
2019-04-28T20:18:33.605Z,11.57
2019-04-28T20:21:02.670Z,10.67
2019-04-28T20:23:31.565Z,11.33
2019-04-28T20:26:00.411Z,12.10
2019-04-28T20:28:29.494Z,13.10
2019-04-28T20:30:58.435Z,20.67
2019-04-28T20:33:27.276Z,15.63
2019-04-28T20:36:00.500Z,14.23
2019-04-28T20:38:30.941Z,15.27
2019-04-28T20:41:10.416Z,16.87
2019-04-28T20:43:39.282Z,18.70
2019-04-28T20:46:09.001Z,16.07
2019-04-28T20:48:39.630Z,13.70
2019-04-28T20:51:09.656Z,14.23
2019-04-28T20:53:44.035Z,14.90
2019-04-28T20:56:20.485Z,16.13
2019-04-28T20:59:01.205Z,15.33
2019-04-28T21:01:30.157Z,14.90
2019-04-28T21:03:59.014Z,13.13
2019-04-28T21:06:27.926Z,14.10
2019-04-28T21:08:56.842Z,14.60
2019-04-28T21:11:28.917Z,15.03
2019-04-28T21:13:57.823Z,15.80
2019-04-28T21:16:26.686Z,13.67
2019-04-28T21:18:55.560Z,13.17
2019-04-28T21:21:24.440Z,13.03
2019-04-28T21:23:53.290Z,13.87
2019-04-28T21:26:22.155Z,14.63
2019-04-28T21:28:51.114Z,15.27
2019-04-28T21:31:19.989Z,17.30
2019-04-28T21:33:48.847Z,18.83
2019-04-28T21:36:17.746Z,17.43
2019-04-28T21:38:48.216Z,16.50
2019-04-28T21:41:17.069Z,12.67
2019-04-28T21:43:53.645Z,14.63
2019-04-28T21:46:36.154Z,13.93
2019-04-28T21:49:06.632Z,16.50
2019-04-28T21:51:35.500Z,13.90
2019-04-28T21:54:04.330Z,13.37
2019-04-28T21:56:33.215Z,12.90
2019-04-28T21:59:02.072Z,12.27
2019-04-28T22:01:31.042Z,13.40
2019-04-28T22:03:59.961Z,11.87
2019-04-28T22:06:28.832Z,10.67
2019-04-28T22:08:57.691Z,12.33
2019-04-28T22:11:26.571Z,11.93
2019-04-28T22:13:55.429Z,12.87
2019-04-28T22:16:24.672Z,13.43
2019-04-28T22:18:54.433Z,14.03
2019-04-28T22:21:23.298Z,13.23
2019-04-28T22:23:56.684Z,14.87
2019-04-28T22:26:45.322Z,14.87
2019-04-28T22:29:14.682Z,12.43
2019-04-28T22:31:48.490Z,11.30
2019-04-28T22:34:17.392Z,11.53
2019-04-28T22:36:46.951Z,15.93
2019-04-28T22:39:15.886Z,16.73
2019-04-28T22:41:44.901Z,17.83
2019-04-28T22:44:13.740Z,17.53
2019-04-28T22:46:42.696Z,12.50
2019-04-28T22:49:11.596Z,11.67
2019-04-28T22:51:40.440Z,13.43
2019-04-28T22:54:16.839Z,13.13
2019-04-28T22:56:47.271Z,12.20
2019-04-28T22:59:20.735Z,12.50
2019-04-28T23:02:00.151Z,11.70
2019-04-28T23:04:33.330Z,11.83
2019-04-28T23:07:02.183Z,12.20
2019-04-28T23:09:31.036Z,10.80
2019-04-28T23:11:59.931Z,12.17
2019-04-28T23:14:28.783Z,13.17
2019-04-28T23:16:57.811Z,14.63
2019-04-28T23:19:28.333Z,17.17
2019-04-28T23:21:58.757Z,18.30
2019-04-28T23:24:27.612Z,17.90
2019-04-28T23:26:56.515Z,18.60
2019-04-28T23:29:25.355Z,17.30
2019-04-28T23:31:54.201Z,17.27
2019-04-28T23:34:23.092Z,17.10
2019-04-28T23:36:52.435Z,18.57
2019-04-28T23:39:21.286Z,20.10
2019-04-28T23:41:57.625Z,20.87
2019-04-28T23:44:26.487Z,22.67
2019-04-28T23:46:56.951Z,20.70
2019-04-28T23:49:27.379Z,20.60
2019-04-28T23:52:00.904Z,22.37
2019-04-28T23:54:29.733Z,18.43
2019-04-28T23:56:58.642Z,18.27
2019-04-28T23:59:27.569Z,16.03
